Time;durP1;ratioP1;P1;durP2;ratioP2;P2;SDS_P1;SDS_P2;PMS_P1;PMS_P2;Temp;Humidity;BMP_temperature;BMP_pressure;BME280_temperature;BME280_humidity;BME280_pressure;Samples;Min_cycle;Max_cycle;Signal;HPM_P1;HPM_P2
2024/01/20 00:01:59;;;;;;;26.88;12.20;;;;;;;-1.55;100.00;102388.69;4994610;28;20491;-87
2024/01/20 00:04:25;;;;;;;32.67;13.90;;;;;;;-1.48;100.00;102394.03;4994949;28;20029;-88
2024/01/20 00:06:50;;;;;;;28.85;13.27;;;;;;;-1.44;100.00;102396.69;4962875;28;20026;-87
2024/01/20 00:09:16;;;;;;;27.00;11.38;;;;;;;-1.48;100.00;102390.44;4962564;28;20033;-87
2024/01/20 00:11:42;;;;;;;29.65;12.80;;;;;;;-1.45;100.00;102392.22;4994533;28;20022;-88
2024/01/20 00:14:07;;;;;;;28.15;13.75;;;;;;;-1.45;100.00;102386.84;4962098;28;20038;-86
2024/01/20 00:16:33;;;;;;;25.60;12.80;;;;;;;-1.44;100.00;102394.00;4994267;28;20026;-87
2024/01/20 00:18:59;;;;;;;37.60;13.73;;;;;;;-1.46;100.00;102394.00;4994295;28;20062;-87
2024/01/20 00:21:25;;;;;;;27.08;12.40;;;;;;;-1.42;100.00;102397.59;4961141;28;20045;-86
2024/01/20 00:23:50;;;;;;;32.67;13.45;;;;;;;-1.42;100.00;102390.41;4979613;28;20038;-96
2024/01/20 00:26:16;;;;;;;24.88;10.63;;;;;;;-1.48;100.00;102388.66;4965475;28;20030;-95
2024/01/20 00:28:41;;;;;;;29.45;10.85;;;;;;;-1.48;100.00;102391.34;4981289;28;20120;-96
2024/01/20 00:31:07;;;;;;;19.42;10.25;;;;;;;-1.41;100.00;102394.91;4980538;28;20033;-95
2024/01/20 00:33:32;;;;;;;27.55;11.57;;;;;;;-1.43;100.00;102387.72;4979960;28;20061;-96
2024/01/20 00:35:58;;;;;;;25.65;11.27;;;;;;;-1.40;100.00;102396.66;4963734;28;20094;-96
2024/01/20 00:38:25;;;;;;;28.17;11.77;;;;;;;-1.38;100.00;102389.47;4963372;28;20496;-96
2024/01/20 00:40:51;;;;;;;27.73;11.05;;;;;;;-1.40;100.00;102382.34;4963793;28;20030;-96
2024/01/20 00:43:18;;;;;;;24.67;11.55;;;;;;;-1.39;100.00;102393.09;4996494;28;20053;-96
2024/01/20 00:45:45;;;;;;;30.20;13.05;;;;;;;-1.45;100.00;102382.38;4964408;28;20026;-96
2024/01/20 00:48:10;;;;;;;17.58;8.52;;;;;;;-1.48;100.00;102387.75;4979838;28;20121;-96
2024/01/20 00:50:36;;;;;;;25.85;12.27;;;;;;;-1.49;100.00;102369.88;4964909;28;20061;-96
2024/01/20 00:53:02;;;;;;;27.38;12.55;;;;;;;-1.42;100.00;102385.03;4997017;28;20037;-96
2024/01/20 00:55:27;;;;;;;25.83;11.80;;;;;;;-1.35;100.00;102383.22;4964061;28;20030;-96
2024/01/20 00:57:53;;;;;;;27.40;12.35;;;;;;;-1.44;100.00;102372.50;4964350;28;20034;-96
2024/01/20 01:00:18;;;;;;;17.08;9.15;;;;;;;-1.45;100.00;102360.00;4964105;28;20038;-96
2024/01/20 01:02:44;;;;;;;28.58;12.70;;;;;;;-1.43;100.00;102367.13;4980757;28;20026;-96
2024/01/20 01:05:09;;;;;;;19.50;9.82;;;;;;;-1.38;100.00;102378.75;4980941;28;20038;-96
2024/01/20 01:07:35;;;;;;;22.77;11.05;;;;;;;-1.37;100.00;102377.84;4979013;28;20480;-95
2024/01/20 01:10:03;;;;;;;22.85;11.90;;;;;;;-1.38;100.00;102378.75;4995045;28;20026;-95
2024/01/20 01:12:29;;;;;;;22.25;11.13;;;;;;;-1.37;100.00;102377.84;4979478;28;20117;-95
2024/01/20 01:14:54;;;;;;;17.75;9.10;;;;;;;-1.39;100.00;102384.16;4995086;28;20461;-95
2024/01/20 01:17:20;;;;;;;24.65;10.50;;;;;;;-1.35;100.00;102388.59;4978419;28;20448;-96
2024/01/20 01:19:47;;;;;;;23.17;11.45;;;;;;;-1.35;100.00;102381.41;4962439;28;20108;-96
2024/01/20 01:22:13;;;;;;;24.60;11.82;;;;;;;-1.32;100.00;102385.91;4963126;28;20076;-96
2024/01/20 01:24:38;;;;;;;24.42;10.32;;;;;;;-1.30;100.00;102384.09;4995345;28;20030;-96
2024/01/20 01:27:07;;;;;;;21.17;10.73;;;;;;;-1.28;100.00;102378.72;4962740;28;20088;-96
2024/01/20 01:29:34;;;;;;;21.60;9.25;;;;;;;-1.31;100.00;102388.56;4978621;28;20064;-95
2024/01/20 01:32:00;;;;;;;24.08;11.25;;;;;;;-1.32;100.00;102385.91;4963287;28;20026;-96
2024/01/20 01:34:25;;;;;;;22.70;11.23;;;;;;;-1.36;100.00;102386.78;4978234;28;20096;-88
2024/01/20 01:36:52;;;;;;;20.58;9.05;;;;;;;-1.34;100.00;102385.00;4977496;28;20022;-88
2024/01/20 01:39:18;;;;;;;26.92;10.77;;;;;;;-1.38;100.00;102386.78;4977243;28;20045;-88
2024/01/20 01:41:44;;;;;;;27.40;11.57;;;;;;;-1.33;100.00;102386.78;4977718;28;20073;-88
2024/01/20 01:44:10;;;;;;;19.75;9.52;;;;;;;-1.34;100.00;102393.97;4976983;28;20125;-88
2024/01/20 01:46:37;;;;;;;21.08;10.43;;;;;;;-1.32;100.00;102407.38;4993474;28;20472;-88
2024/01/20 01:49:04;;;;;;;17.73;9.90;;;;;;;-1.36;100.00;102411.88;4993676;28;20034;-88
2024/01/20 01:51:32;;;;;;;19.80;10.48;;;;;;;-1.36;100.00;102398.44;4992700;28;20026;-88
2024/01/20 01:54:02;;;;;;;21.13;10.25;;;;;;;-1.33;100.00;102408.28;4961133;28;20053;-88
2024/01/20 01:56:28;;;;;;;23.73;10.55;;;;;;;-1.36;100.00;102403.81;4993833;28;20030;-88
2024/01/20 01:58:56;;;;;;;23.95;11.68;;;;;;;-1.29;100.00;102407.38;4994262;28;20121;-88
2024/01/20 02:01:21;;;;;;;20.27;8.85;;;;;;;-1.30;100.00;102419.94;4977803;28;20118;-88
2024/01/20 02:03:47;;;;;;;21.40;10.13;;;;;;;-1.36;100.00;102422.63;4961114;28;20038;-88
2024/01/20 02:06:12;;;;;;;21.98;10.43;;;;;;;-1.35;100.00;102424.41;4961724;28;20030;-87
2024/01/20 02:08:40;;;;;;;17.40;8.88;;;;;;;-1.37;100.00;102426.22;4977132;28;20122;-87
2024/01/20 02:11:07;;;;;;;25.38;11.02;;;;;;;-1.33;100.00;102421.72;4977000;28;20018;-87
2024/01/20 02:13:33;;;;;;;21.65;9.38;;;;;;;-1.31;100.00;102430.69;4993370;28;20089;-87
2024/01/20 02:16:00;;;;;;;19.20;10.15;;;;;;;-1.27;100.00;102442.28;4976781;28;20081;-87
2024/01/20 02:18:26;;;;;;;17.15;9.75;;;;;;;-1.30;100.00;102444.09;4995289;28;20046;-87
2024/01/20 02:20:51;;;;;;;21.48;9.15;;;;;;;-1.34;100.00;102436.94;4964247;28;20038;-87
2024/01/20 02:23:16;;;;;;;20.13;10.35;;;;;;;-1.30;100.00;102449.47;4980188;28;20476;-87
2024/01/20 02:25:43;;;;;;;21.92;10.32;;;;;;;-1.31;100.00;102441.44;4964429;28;20038;-87
2024/01/20 02:28:09;;;;;;;19.88;10.20;;;;;;;-1.40;100.00;102439.66;4964415;28;20041;-87
2024/01/20 02:30:34;;;;;;;20.25;9.38;;;;;;;-1.46;100.00;102439.66;4964140;28;20117;-86
2024/01/20 02:33:01;;;;;;;19.63;9.65;;;;;;;-1.41;100.00;102440.56;4980625;28;20031;-87
2024/01/20 02:35:26;;;;;;;18.40;9.05;;;;;;;-1.38;100.00;102445.91;4964095;28;20034;-86
2024/01/20 02:37:51;;;;;;;16.92;9.27;;;;;;;-1.32;100.00;102448.56;4979919;28;20026;-87
2024/01/20 02:40:17;;;;;;;17.83;9.27;;;;;;;-1.35;100.00;102445.88;4979420;28;20396;-87
2024/01/20 02:42:43;;;;;;;20.35;11.15;;;;;;;-1.30;100.00;102446.78;4979725;28;20138;-87
2024/01/20 02:45:08;;;;;;;18.95;9.40;;;;;;;-1.30;100.00;102448.56;4979958;28;20058;-88
2024/01/20 02:47:34;;;;;;;23.48;10.38;;;;;;;-1.33;100.00;102444.13;4963926;28;20034;-87
2024/01/20 02:50:00;;;;;;;18.73;9.38;;;;;;;-1.34;100.00;102438.75;4997124;28;20029;-86
2024/01/20 02:52:25;;;;;;;21.85;11.50;;;;;;;-1.35;100.00;102456.63;4963735;28;20563;-88
2024/01/20 02:54:51;;;;;;;20.27;9.63;;;;;;;-1.35;100.00;102453.06;4996715;28;20041;-87
2024/01/20 02:57:16;;;;;;;15.05;7.22;;;;;;;-1.32;100.00;102451.25;4963666;28;20040;-88
2024/01/20 02:59:42;;;;;;;20.88;9.98;;;;;;;-1.32;100.00;102445.88;4963666;28;20436;-88
2024/01/20 03:02:07;;;;;;;24.02;10.93;;;;;;;-1.26;100.00;102446.75;4963442;28;20370;-88
2024/01/20 03:04:33;;;;;;;21.30;9.30;;;;;;;-1.38;100.00;102434.28;4979710;28;20026;-88
2024/01/20 03:06:59;;;;;;;19.83;9.43;;;;;;;-1.34;100.00;102439.63;4996168;28;20025;-88
2024/01/20 03:09:24;;;;;;;23.42;9.82;;;;;;;-1.33;100.00;102444.13;4979593;28;20030;-88
2024/01/20 03:11:50;;;;;;;18.40;10.35;;;;;;;-1.31;100.00;102441.44;4979635;28;20062;-88
2024/01/20 03:14:15;;;;;;;20.02;10.32;;;;;;;-1.29;100.00;102436.94;4963654;28;20037;-88
2024/01/20 03:16:40;;;;;;;21.20;9.32;;;;;;;-1.31;100.00;102436.94;4979082;28;20034;-88
2024/01/20 03:19:06;;;;;;;14.07;7.90;;;;;;;-1.28;100.00;102445.88;4963286;28;20056;-87
2024/01/20 03:21:33;;;;;;;19.45;9.70;;;;;;;-1.27;100.00;102445.88;4981229;28;20041;-87
2024/01/20 03:23:58;;;;;;;15.85;9.38;;;;;;;-1.30;100.00;102444.09;4979563;28;20555;-86
2024/01/20 03:26:23;;;;;;;22.42;10.10;;;;;;;-1.34;100.00;102439.63;4979206;28;20038;-87
2024/01/20 03:28:49;;;;;;;20.85;9.52;;;;;;;-1.32;100.00;102445.00;4961963;28;20054;-89
2024/01/20 03:31:15;;;;;;;22.55;10.32;;;;;;;-1.33;100.00;102454.88;4979138;28;20058;-86
2024/01/20 03:33:40;;;;;;;13.68;7.60;;;;;;;-1.29;100.00;102458.44;4995463;28;20050;-88
2024/01/20 03:36:06;;;;;;;19.38;10.55;;;;;;;-1.23;100.00;102465.56;4963561;28;20035;-88
2024/01/20 03:38:31;;;;;;;18.38;9.00;;;;;;;-1.27;100.00;102464.69;4978834;28;20030;-89
2024/01/20 03:40:57;;;;;;;14.40;6.22;;;;;;;-1.28;100.00;102457.50;4962614;28;20039;-88
2024/01/20 03:43:23;;;;;;;19.15;9.05;;;;;;;-1.35;100.00;102451.25;4979184;28;20060;-87
2024/01/20 03:45:48;;;;;;;21.55;8.93;;;;;;;-1.33;100.00;102451.25;4995197;28;20468;-88
2024/01/20 03:48:14;;;;;;;19.88;9.77;;;;;;;-1.32;100.00;102461.13;4962903;28;20030;-88
2024/01/20 03:50:39;;;;;;;21.65;9.23;;;;;;;-1.35;100.00;102448.56;4963143;28;20484;-88
2024/01/20 03:53:05;;;;;;;14.93;7.82;;;;;;;-1.30;100.00;102451.25;4994948;28;20096;-87
2024/01/20 03:55:31;;;;;;;18.70;9.57;;;;;;;-1.31;100.00;102453.06;4980161;28;20034;-95
2024/01/20 03:57:57;;;;;;;17.15;10.20;;;;;;;-1.31;100.00;102454.84;4996809;28;20453;-95
2024/01/20 04:00:23;;;;;;;16.85;8.93;;;;;;;-1.36;100.00;102457.56;4998536;28;20030;-95
2024/01/20 04:02:48;;;;;;;15.15;8.75;;;;;;;-1.35;100.00;102445.88;4966248;28;20054;-95
2024/01/20 04:05:14;;;;;;;22.30;10.32;;;;;;;-1.35;100.00;102445.00;4996405;28;20026;-96
2024/01/20 04:07:39;;;;;;;20.65;9.75;;;;;;;-1.38;100.00;102442.31;4980114;28;20439;-96
2024/01/20 04:10:05;;;;;;;21.33;8.68;;;;;;;-1.36;100.00;102445.91;4964163;28;20162;-96
2024/01/20 04:12:30;;;;;;;17.67;7.50;;;;;;;-1.34;100.00;102460.25;4964293;28;20040;-96
2024/01/20 04:14:56;;;;;;;20.45;9.55;;;;;;;-1.32;100.00;102461.13;4964406;28;20034;-96
2024/01/20 04:17:22;;;;;;;18.00;9.70;;;;;;;-1.39;100.00;102457.56;4980515;28;20045;-95
2024/01/20 04:19:47;;;;;;;21.05;9.82;;;;;;;-1.41;100.00;102440.56;4980145;28;20132;-96
2024/01/20 04:22:13;;;;;;;20.55;10.02;;;;;;;-1.32;100.00;102453.94;4964234;28;20038;-96
2024/01/20 04:24:38;;;;;;;20.67;10.65;;;;;;;-1.34;100.00;102447.69;4980174;28;20126;-96
2024/01/20 04:27:04;;;;;;;25.92;11.10;;;;;;;-1.36;100.00;102468.31;4979704;28;20066;-95
2024/01/20 04:29:30;;;;;;;17.73;9.55;;;;;;;-1.37;100.00;102474.56;4979962;28;20126;-95
2024/01/20 04:31:55;;;;;;;21.67;10.40;;;;;;;-1.34;100.00;102474.56;4963606;28;20026;-95
2024/01/20 04:34:20;;;;;;;20.55;9.48;;;;;;;-1.35;100.00;102479.94;4964086;28;20520;-95
2024/01/20 04:36:46;;;;;;;20.80;9.75;;;;;;;-1.36;100.00;102478.13;4964007;28;20498;-96
2024/01/20 04:39:11;;;;;;;19.55;8.77;;;;;;;-1.44;100.00;102474.56;4963646;28;20034;-95
2024/01/20 04:41:37;;;;;;;18.80;9.40;;;;;;;-1.38;100.00;102488.88;4962579;28;20120;-95
2024/01/20 04:44:03;;;;;;;17.23;9.55;;;;;;;-1.45;100.00;102471.00;4963693;28;20451;-95
2024/01/20 04:46:28;;;;;;;18.88;9.30;;;;;;;-1.37;100.00;102495.16;4995066;28;20033;-94
2024/01/20 04:48:54;;;;;;;13.90;7.63;;;;;;;-1.38;100.00;102493.38;4962611;28;20085;-94
2024/01/20 04:51:19;;;;;;;24.90;11.60;;;;;;;-1.36;100.00;102499.63;4978614;28;20042;-95
2024/01/20 04:53:45;;;;;;;20.70;10.27;;;;;;;-1.34;100.00;102504.09;4963322;28;20092;-96
2024/01/20 04:56:10;;;;;;;20.05;10.57;;;;;;;-1.35;100.00;102510.38;4964767;28;20031;-94
2024/01/20 04:58:37;;;;;;;21.50;9.75;;;;;;;-1.35;100.00;102509.47;4971755;28;20113;-94
2024/01/20 05:01:02;;;;;;;22.45;9.38;;;;;;;-1.37;100.00;102512.16;4997754;28;20029;-94
2024/01/20 05:03:28;;;;;;;15.95;9.70;;;;;;;-1.39;100.00;102510.41;4963316;28;20030;-95
2024/01/20 05:05:53;;;;;;;14.02;8.88;;;;;;;-1.37;100.00;102509.50;4962760;28;20030;-95
2024/01/20 05:08:18;;;;;;;18.45;10.52;;;;;;;-1.32;100.00;102512.16;4962950;28;20091;-95
2024/01/20 05:10:45;;;;;;;19.15;9.43;;;;;;;-1.36;100.00;102513.97;4962558;28;20030;-96
2024/01/20 05:13:10;;;;;;;19.00;10.02;;;;;;;-1.34;100.00;102514.84;4978911;28;20045;-95
2024/01/20 05:15:36;;;;;;;26.58;10.90;;;;;;;-1.36;100.00;102519.34;4962677;28;20042;-96
2024/01/20 05:18:01;;;;;;;15.60;8.63;;;;;;;-1.38;100.00;102512.16;4962387;28;20054;-95
2024/01/20 05:20:27;;;;;;;24.60;11.05;;;;;;;-1.35;100.00;102521.13;4962254;28;20084;-95
2024/01/20 05:22:52;;;;;;;19.95;10.20;;;;;;;-1.37;100.00;102519.34;4962255;28;20488;-94
2024/01/20 05:25:17;;;;;;;15.43;8.15;;;;;;;-1.44;100.00;102507.72;4978612;28;20038;-95
2024/01/20 05:27:43;;;;;;;21.10;10.95;;;;;;;-1.40;100.00;102513.97;4962441;28;20050;-95
2024/01/20 05:30:09;;;;;;;18.83;9.55;;;;;;;-1.38;100.00;102513.06;4962320;28;20034;-95
2024/01/20 05:32:38;;;;;;;11.32;6.95;;;;;;;-1.38;100.00;102507.69;4978395;28;20033;-94
2024/01/20 05:35:04;;;;;;;16.75;7.68;;;;;;;-1.42;100.00;102513.97;4979041;28;20439;-95
2024/01/20 05:37:29;;;;;;;15.15;8.25;;;;;;;-1.44;100.00;102523.84;4978281;28;20129;-94
2024/01/20 05:39:56;;;;;;;12.27;7.35;;;;;;;-1.44;100.00;102514.88;4961792;28;20038;-95
2024/01/20 05:42:22;;;;;;;17.25;9.43;;;;;;;-1.41;100.00;102526.53;4963092;28;20113;-94
2024/01/20 05:44:47;;;;;;;15.52;8.05;;;;;;;-1.47;100.00;102529.22;4962765;28;20057;-94
2024/01/20 05:47:13;;;;;;;17.23;8.90;;;;;;;-1.41;100.00;102534.59;4994168;28;20034;-95
2024/01/20 05:49:38;;;;;;;17.15;7.35;;;;;;;-1.49;100.00;102534.59;4978225;28;20035;-93
2024/01/20 05:52:04;;;;;;;18.55;8.52;;;;;;;-1.44;100.00;102539.97;4978254;28;20033;-94
2024/01/20 05:54:29;;;;;;;14.77;8.27;;;;;;;-1.45;100.00;102540.84;4966562;28;20081;-94
2024/01/20 05:56:54;;;;;;;18.48;8.68;;;;;;;-1.52;100.00;102525.66;4967577;28;20520;-94
2024/01/20 05:59:20;;;;;;;16.23;9.40;;;;;;;-1.50;100.00;102524.72;4966971;28;20026;-93
2024/01/20 06:01:50;;;;;;;11.48;7.35;;;;;;;-1.52;100.00;102536.41;4966154;28;20034;-95
2024/01/20 06:04:19;;;;;;;10.80;7.15;;;;;;;-1.47;100.00;102537.28;4967063;28;20141;-94
2024/01/20 06:06:48;;;;;;;15.68;7.63;;;;;;;-1.51;100.00;102538.16;4965919;28;20046;-95
2024/01/20 06:09:14;;;;;;;12.98;7.55;;;;;;;-1.55;100.00;102542.66;4965872;28;20468;-96
2024/01/20 06:11:40;;;;;;;16.77;8.77;;;;;;;-1.53;100.00;102540.84;4982534;28;20076;-93
2024/01/20 06:14:06;;;;;;;17.80;9.68;;;;;;;-1.51;100.00;102547.13;4965037;28;20053;-85
2024/01/20 06:16:33;;;;;;;15.50;7.97;;;;;;;-1.53;100.00;102545.34;4996057;28;20070;-85
2024/01/20 06:19:00;;;;;;;16.33;9.02;;;;;;;-1.46;100.00;102546.22;4996874;28;20074;-86
2024/01/20 06:21:26;;;;;;;16.90;8.48;;;;;;;-1.49;100.00;102548.03;4963757;28;20030;-86
2024/01/20 06:23:51;;;;;;;15.18;9.63;;;;;;;-1.53;100.00;102546.22;4979501;28;20369;-86
2024/01/20 06:26:17;;;;;;;15.52;8.20;;;;;;;-1.57;100.00;102549.81;4995685;28;20034;-85
2024/01/20 06:28:44;;;;;;;16.33;8.82;;;;;;;-1.49;100.00;102557.88;4995789;28;20030;-85
2024/01/20 06:31:23;;;;;;;14.07;7.68;;;;;;;-1.55;100.00;102555.19;4963829;28;20477;-85
2024/01/20 06:33:49;;;;;;;15.68;8.35;;;;;;;-1.55;100.00;102556.06;4995786;28;20022;-85
2024/01/20 06:36:14;;;;;;;16.73;8.35;;;;;;;-1.52;100.00;102560.56;4979084;28;20373;-86
2024/01/20 06:38:43;;;;;;;10.95;6.10;;;;;;;-1.61;100.00;102569.50;4979559;28;20387;-87
2024/01/20 06:41:08;;;;;;;18.45;8.93;;;;;;;-1.61;100.00;102564.13;4964028;28;20113;-86
2024/01/20 06:43:34;;;;;;;17.58;9.20;;;;;;;-1.62;100.00;102569.50;4979397;28;20061;-86
2024/01/20 06:46:00;;;;;;;17.65;8.45;;;;;;;-1.60;100.00;102576.69;4979092;28;20555;-84
2024/01/20 06:48:26;;;;;;;15.07;8.77;;;;;;;-1.60;100.00;102571.31;4979141;28;20108;-84
2024/01/20 06:50:51;;;;;;;15.80;8.73;;;;;;;-1.57;100.00;102576.69;4995295;28;20033;-85
2024/01/20 06:53:17;;;;;;;17.40;8.93;;;;;;;-1.59;100.00;102581.16;4963078;28;20113;-84
2024/01/20 06:55:43;;;;;;;13.15;7.50;;;;;;;-1.64;100.00;102574.00;5699840;22;20046;-83
2024/01/20 06:58:08;;;;;;;13.82;8.45;;;;;;;-1.66;100.00;102579.34;4950736;28;20059;-84
2024/01/20 07:00:35;;;;;;;14.70;7.93;;;;;;;-1.72;100.00;102588.31;4953284;28;20065;-83
2024/01/20 07:03:04;;;;;;;12.32;7.15;;;;;;;-1.75;100.00;102582.06;4967703;28;20026;-83
2024/01/20 07:05:30;;;;;;;17.08;8.52;;;;;;;-1.71;100.00;102586.53;4986212;28;20030;-84
2024/01/20 07:07:56;;;;;;;14.98;8.55;;;;;;;-1.71;100.00;102591.91;4973549;28;20049;-84
2024/01/20 07:10:22;;;;;;;23.38;7.82;;;;;;;-1.73;100.00;102597.25;4974695;28;20554;-83
2024/01/20 07:12:49;;;;;;;12.35;6.47;;;;;;;-1.79;100.00;102608.00;4981905;28;20065;-85
2024/01/20 07:15:15;;;;;;;12.85;5.82;;;;;;;-1.83;100.00;102597.28;4970908;28;20483;-84
2024/01/20 07:17:40;;;;;;;12.60;7.35;;;;;;;-1.80;100.00;102591.88;4952861;28;20073;-84
2024/01/20 07:20:08;;;;;;;18.30;8.45;;;;;;;-1.76;100.00;102599.94;4961419;28;20031;-84
2024/01/20 07:22:35;;;;;;;15.82;7.57;;;;;;;-1.77;100.00;102594.56;4962888;28;20137;-84
2024/01/20 07:25:02;;;;;;;14.65;7.75;;;;;;;-1.78;100.00;102596.38;4991515;28;20461;-83
2024/01/20 07:27:28;;;;;;;18.58;9.02;;;;;;;-1.77;100.00;102603.53;4972943;28;20118;-84
2024/01/20 07:29:53;;;;;;;18.42;9.75;;;;;;;-1.81;100.00;102598.16;4962730;28;20130;-85
2024/01/20 07:32:20;;;;;;;19.00;10.35;;;;;;;-1.82;100.00;102597.28;4972268;28;20109;-86
2024/01/20 07:34:45;;;;;;;13.13;8.27;;;;;;;-1.83;100.00;102599.97;4961605;28;20033;-86
2024/01/20 07:37:12;;;;;;;14.75;7.65;;;;;;;-1.91;100.00;102597.25;4964327;28;20038;-87
2024/01/20 07:39:38;;;;;;;20.25;7.65;;;;;;;-1.96;100.00;102594.56;4986308;28;20038;-86
2024/01/20 07:42:03;;;;;;;16.80;8.63;;;;;;;-1.95;100.00;102590.09;4975096;28;20137;-86
2024/01/20 07:44:29;;;;;;;16.42;7.38;;;;;;;-1.91;100.00;102591.88;4978659;28;20041;-86
2024/01/20 07:46:56;;;;;;;12.90;6.13;;;;;;;-1.90;100.00;102597.25;4976984;28;20045;-86
2024/01/20 07:49:23;;;;;;;14.10;7.28;;;;;;;-1.93;100.00;102604.44;4983372;28;20026;-85
2024/01/20 07:51:49;;;;;;;14.50;8.48;;;;;;;-1.96;100.00;102609.78;4975821;28;20018;-85
2024/01/20 07:54:16;;;;;;;16.23;7.32;;;;;;;-1.98;100.00;102607.09;4976839;28;20058;-86
2024/01/20 07:56:41;;;;;;;18.15;8.68;;;;;;;-1.87;100.00;102615.16;4976013;28;20038;-84
2024/01/20 07:59:07;;;;;;;19.65;8.95;;;;;;;-1.90;100.00;102618.75;4960957;28;20038;-86
2024/01/20 08:01:32;;;;;;;14.27;8.07;;;;;;;-1.90;100.00;102615.16;4971470;28;20030;-85
2024/01/20 08:03:58;;;;;;;15.45;8.65;;;;;;;-1.93;100.00;102621.41;4974456;28;20038;-82
2024/01/20 08:06:23;;;;;;;20.85;10.05;;;;;;;-1.81;100.00;102622.31;4958877;28;20133;-85
2024/01/20 08:08:49;;;;;;;17.17;9.15;;;;;;;-1.84;100.00;102617.84;4985201;28;20041;-85
2024/01/20 08:11:14;;;;;;;14.05;8.23;;;;;;;-1.87;100.00;102625.88;4978194;28;20037;-85
2024/01/20 08:13:39;;;;;;;16.65;9.15;;;;;;;-1.92;100.00;102622.31;4973162;28;20026;-87
2024/01/20 08:16:07;;;;;;;17.83;8.57;;;;;;;-1.88;100.00;102621.44;4971923;28;20096;-83
2024/01/20 08:18:32;;;;;;;18.77;8.90;;;;;;;-1.90;100.00;102617.84;4987425;28;20030;-86
2024/01/20 08:20:57;;;;;;;14.57;7.90;;;;;;;-1.92;100.00;102612.47;4974326;28;20081;-85
2024/01/20 08:23:24;;;;;;;18.50;9.77;;;;;;;-1.88;100.00;102621.44;4973568;28;20049;-86
2024/01/20 08:25:52;;;;;;;12.15;6.03;;;;;;;-1.81;100.00;102620.53;4978542;28;20061;-83
2024/01/20 08:28:20;;;;;;;15.75;7.97;;;;;;;-1.74;100.00;102611.59;4961021;28;20125;-86
2024/01/20 08:30:45;;;;;;;17.05;8.05;;;;;;;-1.79;100.00;102608.00;4971074;28;20030;-90
2024/01/20 08:33:12;;;;;;;14.77;7.47;;;;;;;-1.87;100.00;102620.50;4953065;28;20031;-85
2024/01/20 08:35:39;;;;;;;12.75;6.70;;;;;;;-1.94;100.00;102618.72;4987970;28;20042;-85
2024/01/20 08:38:04;;;;;;;13.77;7.05;;;;;;;-1.92;100.00;102627.66;4970463;28;20504;-85
2024/01/20 08:40:31;;;;;;;18.95;8.98;;;;;;;-1.88;100.00;102632.16;4989479;28;20046;-86
2024/01/20 08:42:57;;;;;;;18.52;9.63;;;;;;;-1.88;100.00;102632.16;4968207;28;20034;-86
2024/01/20 08:45:23;;;;;;;14.27;6.68;;;;;;;-1.89;100.00;102630.34;4972307;28;20053;-86
2024/01/20 08:47:49;;;;;;;22.77;9.85;;;;;;;-1.91;100.00;102645.56;4991826;28;20041;-86
2024/01/20 08:50:14;;;;;;;18.38;9.27;;;;;;;-1.90;100.00;102647.38;4976336;28;20038;-86
2024/01/20 08:52:41;;;;;;;25.02;9.75;;;;;;;-1.81;100.00;102650.06;4979641;28;20034;-85
2024/01/20 08:55:07;;;;;;;13.35;7.55;;;;;;;-1.96;100.00;102656.28;4985585;28;20034;-85
2024/01/20 08:57:33;;;;;;;16.27;8.13;;;;;;;-1.95;100.00;102660.78;4984571;28;20098;-86
2024/01/20 08:59:59;;;;;;;14.98;7.88;;;;;;;-1.97;100.00;102657.19;4957466;28;20057;-86
2024/01/20 09:02:24;;;;;;;17.73;6.95;;;;;;;-2.00;100.00;102656.28;4974729;28;20392;-86
2024/01/20 09:04:50;;;;;;;11.00;6.20;;;;;;;-1.89;100.00;102663.47;4988315;28;20030;-85
2024/01/20 09:07:15;;;;;;;16.02;8.30;;;;;;;-1.89;100.00;102659.88;4969111;28;20376;-84
2024/01/20 09:09:41;;;;;;;17.98;7.75;;;;;;;-1.93;100.00;102659.00;4955064;28;20638;-84
2024/01/20 09:12:07;;;;;;;16.27;7.60;;;;;;;-1.95;100.00;102665.22;4973180;28;20034;-85
2024/01/20 09:14:33;;;;;;;24.85;8.18;;;;;;;-1.91;100.00;102659.88;4973915;28;20065;-85
2024/01/20 09:16:58;;;;;;;18.70;9.10;;;;;;;-1.76;100.00;102663.50;4972342;28;20177;-91
2024/01/20 09:19:26;;;;;;;18.05;8.77;;;;;;;-1.77;100.00;102667.06;4970035;28;20512;-91
2024/01/20 09:21:52;;;;;;;22.33;9.43;;;;;;;-1.64;100.00;102678.72;4970703;28;20030;-91
2024/01/20 09:24:17;;;;;;;25.35;9.43;;;;;;;-1.72;100.00;102663.50;4984107;28;20069;-91
2024/01/20 09:26:44;;;;;;;28.58;10.70;;;;;;;-1.62;100.00;102668.88;4974120;28;20077;-92
2024/01/20 09:29:09;;;;;;;19.73;8.80;;;;;;;-1.69;100.00;102668.88;4962527;28;20933;-92
2024/01/20 09:31:36;;;;;;;22.85;11.35;;;;;;;-1.62;100.00;102672.47;4976698;28;20057;-90
2024/01/20 09:34:01;;;;;;;18.85;9.68;;;;;;;-1.63;100.00;102673.34;4972858;28;20031;-90
2024/01/20 09:36:27;;;;;;;19.77;8.85;;;;;;;-1.63;100.00;102670.66;4961088;28;20042;-91
2024/01/20 09:38:53;;;;;;;19.02;9.65;;;;;;;-1.70;100.00;102669.75;4958433;28;20046;-90
2024/01/20 09:41:19;;;;;;;20.13;9.63;;;;;;;-1.72;100.00;102670.63;4989665;28;20031;-88
2024/01/20 09:43:45;;;;;;;20.80;10.07;;;;;;;-1.78;100.00;102676.91;4992162;28;20049;-89
2024/01/20 09:46:12;;;;;;;20.15;9.63;;;;;;;-1.80;100.00;102677.78;4993501;28;20496;-90
2024/01/20 09:48:39;;;;;;;15.95;8.55;;;;;;;-1.91;100.00;102684.03;4991712;28;20555;-90
2024/01/20 09:51:05;;;;;;;16.30;8.43;;;;;;;-1.88;100.00;102683.16;4970186;28;20030;-89
2024/01/20 09:53:31;;;;;;;12.80;6.28;;;;;;;-1.86;100.00;102694.78;4971077;28;20055;-90
2024/01/20 09:55:58;;;;;;;17.25;7.80;;;;;;;-1.76;100.00;102691.22;4983722;28;20459;-90
2024/01/20 09:58:26;;;;;;;19.38;10.15;;;;;;;-1.63;100.00;102677.84;4991476;28;20034;-91
2024/01/20 10:00:52;;;;;;;20.48;9.23;;;;;;;-1.59;100.00;102677.84;4987829;28;20034;-92
2024/01/20 10:03:20;;;;;;;19.80;10.20;;;;;;;-1.59;100.00;102680.53;4974309;28;20042;-90
2024/01/20 10:05:46;;;;;;;17.25;9.80;;;;;;;-1.56;100.00;102685.00;4964523;28;20082;-91
2024/01/20 10:08:12;;;;;;;21.75;11.35;;;;;;;-1.59;100.00;102684.97;4953135;28;20221;-89
2024/01/20 10:10:38;;;;;;;22.65;12.38;;;;;;;-1.51;100.00;102689.50;4974856;28;20046;-89
2024/01/20 10:13:03;;;;;;;21.25;11.10;;;;;;;-1.57;100.00;102683.22;4959745;28;20034;-91
2024/01/20 10:15:30;;;;;;;26.65;12.23;;;;;;;-1.65;100.00;102693.94;4992864;28;20038;-90
2024/01/20 10:18:05;;;;;;;23.15;10.95;;;;;;;-1.60;100.00;102702.00;4975325;28;20129;-92
2024/01/20 10:20:32;;;;;;;21.70;10.38;;;;;;;-1.63;100.00;102700.19;4987910;28;20113;-89
2024/01/20 10:23:01;;;;;;;13.73;7.90;;;;;;;-1.72;100.00;102697.50;4957881;28;20381;-90
2024/01/20 10:25:27;;;;;;;19.88;9.35;;;;;;;-1.63;100.00;102702.00;4991207;28;20149;-91
2024/01/20 10:27:53;;;;;;;17.05;8.85;;;;;;;-1.61;100.00;102687.66;4992929;28;20045;-92
2024/01/20 10:30:23;;;;;;;20.73;10.02;;;;;;;-1.49;100.00;102693.06;4972783;28;20487;-90
2024/01/20 10:32:50;;;;;;;21.75;10.90;;;;;;;-1.43;100.00;102691.28;4996938;28;20065;-89
2024/01/20 10:35:16;;;;;;;18.42;9.45;;;;;;;-1.52;100.00;102687.69;4971199;28;20042;-88
2024/01/20 10:37:44;;;;;;;18.60;9.77;;;;;;;-1.44;100.00;102687.69;4972428;28;20027;-89
2024/01/20 10:40:13;;;;;;;19.90;10.18;;;;;;;-1.25;100.00;102687.69;4992881;28;20026;-89
2024/01/20 10:42:55;;;;;;;21.38;10.00;;;;;;;-1.27;100.00;102689.50;4991384;28;20034;-88
2024/01/20 10:45:24;;;;;;;17.65;10.20;;;;;;;-1.08;100.00;102695.75;4987975;28;20249;-87
2024/01/20 10:48:01;;;;;;;17.20;9.45;;;;;;;-1.06;100.00;102688.59;4989394;28;20033;-84
2024/01/20 10:50:26;;;;;;;16.65;8.95;;;;;;;-1.07;100.00;102681.41;4993507;28;20022;-85
2024/01/20 10:52:52;;;;;;;14.82;7.43;;;;;;;-1.12;100.00;102681.41;4983508;28;20030;-85
2024/01/20 10:55:19;;;;;;;18.60;10.35;;;;;;;-1.03;100.00;102692.16;4990677;28;20044;-85
2024/01/20 10:57:47;;;;;;;21.67;10.13;;;;;;;-1.06;100.00;102691.28;4974907;28;20177;-85
2024/01/20 11:00:17;;;;;;;17.40;9.75;;;;;;;-0.96;100.00;102676.91;4990877;28;20133;-86
2024/01/20 11:02:44;;;;;;;17.75;9.85;;;;;;;-0.94;100.00;102669.75;4984116;28;20444;-85